createdAt,value
2023-02-14T00:00:52.326Z,100.00
2023-02-14T00:03:19.886Z,100.00
2023-02-14T00:05:49.273Z,100.00
2023-02-14T00:08:17.397Z,100.00
2023-02-14T00:10:44.858Z,100.00
2023-02-14T00:13:12.311Z,100.00
2023-02-14T00:15:38.805Z,100.00
2023-02-14T00:18:06.323Z,100.00
2023-02-14T00:20:33.754Z,100.00
2023-02-14T00:23:02.571Z,100.00
2023-02-14T00:25:30.046Z,100.00
2023-02-14T00:27:57.475Z,100.00
2023-02-14T00:30:25.003Z,100.00
2023-02-14T00:32:52.578Z,100.00
2023-02-14T00:35:20.168Z,100.00
2023-02-14T00:37:47.831Z,100.00
2023-02-14T00:40:16.771Z,100.00
2023-02-14T00:42:44.206Z,100.00
2023-02-14T00:45:11.664Z,100.00
2023-02-14T00:47:39.121Z,100.00
2023-02-14T00:50:07.312Z,100.00
2023-02-14T00:52:34.756Z,100.00
2023-02-14T00:55:02.209Z,100.00
2023-02-14T00:57:31.115Z,100.00
2023-02-14T00:59:58.527Z,100.00
2023-02-14T01:02:26.015Z,100.00
2023-02-14T01:04:53.461Z,100.00
2023-02-14T01:07:22.595Z,100.00
2023-02-14T01:09:49.907Z,100.00
2023-02-14T01:12:17.370Z,100.00
2023-02-14T01:14:46.130Z,99.97
2023-02-14T01:17:13.550Z,100.00
2023-02-14T01:19:42.343Z,100.00
2023-02-14T01:22:09.793Z,99.65
2023-02-14T01:24:37.268Z,99.25
2023-02-14T01:27:04.854Z,99.74
2023-02-14T01:29:32.295Z,99.94
2023-02-14T01:32:01.135Z,100.00
2023-02-14T01:34:28.704Z,100.00
2023-02-14T01:36:56.130Z,100.00
2023-02-14T01:39:23.817Z,100.00
2023-02-14T01:41:51.349Z,100.00
2023-02-14T01:45:00.602Z,100.00
2023-02-14T01:47:31.781Z,100.00
2023-02-14T01:50:03.939Z,100.00
2023-02-14T01:52:37.264Z,100.00
2023-02-14T01:55:09.078Z,100.00
2023-02-14T01:57:41.519Z,100.00
2023-02-14T02:00:28.414Z,100.00
2023-02-14T02:02:59.723Z,100.00
2023-02-14T02:05:28.149Z,100.00
2023-02-14T02:08:00.533Z,100.00
2023-02-14T02:10:28.005Z,100.00
2023-02-14T02:12:55.639Z,100.00
2023-02-14T02:15:27.296Z,100.00
2023-02-14T02:18:03.882Z,100.00
2023-02-14T02:20:54.065Z,100.00
2023-02-14T02:23:56.893Z,100.00
2023-02-14T02:27:08.684Z,100.00
2023-02-14T02:30:18.750Z,100.00
2023-02-14T02:33:29.174Z,100.00
2023-02-14T02:36:19.691Z,100.00
2023-02-14T02:39:05.147Z,100.00
2023-02-14T02:41:44.177Z,100.00
2023-02-14T02:44:17.240Z,100.00
2023-02-14T02:46:53.176Z,100.00
2023-02-14T02:49:56.116Z,100.00
2023-02-14T02:52:49.986Z,100.00
2023-02-14T02:55:25.522Z,100.00
2023-02-14T02:57:55.095Z,100.00
2023-02-14T03:00:24.779Z,100.00
2023-02-14T03:03:25.708Z,100.00
2023-02-14T03:05:53.206Z,100.00
2023-02-14T03:08:21.970Z,100.00
2023-02-14T03:10:49.488Z,100.00
2023-02-14T03:13:39.790Z,100.00
2023-02-14T03:16:26.929Z,100.00
2023-02-14T03:19:28.737Z,100.00
2023-02-14T03:22:02.423Z,100.00
2023-02-14T03:24:42.267Z,100.00
2023-02-14T03:27:16.213Z,100.00
2023-02-14T03:29:54.880Z,100.00
2023-02-14T03:32:30.606Z,100.00
2023-02-14T03:35:06.054Z,100.00
2023-02-14T03:37:40.335Z,100.00
2023-02-14T03:40:11.956Z,100.00
2023-02-14T03:42:43.474Z,100.00
2023-02-14T03:45:17.621Z,100.00
2023-02-14T03:47:47.873Z,100.00
2023-02-14T03:50:20.376Z,100.00
2023-02-14T03:52:51.520Z,100.00
2023-02-14T03:55:27.337Z,100.00
2023-02-14T03:58:00.404Z,100.00
2023-02-14T04:00:30.780Z,100.00
2023-02-14T04:03:05.707Z,100.00
2023-02-14T04:05:33.979Z,100.00
2023-02-14T04:08:01.597Z,100.00
2023-02-14T04:10:30.505Z,100.00
2023-02-14T04:12:57.964Z,100.00
2023-02-14T04:15:25.383Z,100.00
2023-02-14T04:18:10.651Z,100.00
2023-02-14T04:20:38.251Z,100.00
2023-02-14T04:23:05.718Z,100.00
2023-02-14T04:25:34.553Z,100.00
2023-02-14T04:28:02.025Z,100.00
2023-02-14T04:30:29.587Z,100.00
2023-02-14T04:32:57.052Z,100.00
2023-02-14T04:35:24.469Z,100.00
2023-02-14T04:37:51.921Z,100.00
2023-02-14T04:40:19.460Z,100.00
2023-02-14T04:42:48.468Z,100.00
2023-02-14T04:45:16.279Z,100.00
2023-02-14T04:47:43.724Z,100.00
2023-02-14T04:50:11.414Z,100.00
2023-02-14T04:52:39.231Z,100.00
2023-02-14T04:55:07.979Z,100.00
2023-02-14T04:57:35.492Z,100.00
2023-02-14T05:00:04.701Z,100.00
2023-02-14T05:02:32.206Z,100.00
2023-02-14T05:04:59.645Z,100.00
2023-02-14T05:07:27.350Z,100.00
2023-02-14T05:09:54.834Z,100.00
2023-02-14T05:12:22.263Z,100.00
2023-02-14T05:14:49.751Z,100.00
2023-02-14T05:17:18.570Z,100.00
2023-02-14T05:19:46.164Z,100.00
2023-02-14T05:22:13.623Z,100.00
2023-02-14T05:24:41.120Z,100.00
2023-02-14T05:27:11.499Z,100.00
2023-02-14T05:29:39.078Z,100.00
2023-02-14T05:32:06.608Z,100.00
2023-02-14T05:34:35.454Z,100.00
2023-02-14T05:37:03.546Z,100.00
2023-02-14T05:39:30.985Z,100.00
2023-02-14T05:41:59.392Z,100.00
2023-02-14T05:44:26.999Z,100.00
2023-02-14T05:46:54.785Z,100.00
2023-02-14T05:49:22.482Z,100.00
2023-02-14T05:51:51.351Z,100.00
2023-02-14T05:54:18.792Z,100.00
2023-02-14T05:56:46.282Z,100.00
2023-02-14T05:59:14.500Z,100.00
2023-02-14T06:01:42.038Z,100.00
2023-02-14T06:04:09.488Z,100.00
2023-02-14T06:06:36.944Z,100.00
2023-02-14T06:09:05.799Z,100.00
2023-02-14T06:11:33.261Z,100.00
2023-02-14T06:14:00.710Z,100.00
2023-02-14T06:16:28.190Z,100.00
2023-02-14T06:18:55.689Z,100.00
2023-02-14T06:21:23.272Z,100.00
2023-02-14T06:23:50.816Z,100.00
2023-02-14T06:26:19.671Z,100.00
2023-02-14T06:28:47.127Z,100.00
2023-02-14T06:31:18.248Z,100.00
2023-02-14T06:33:45.789Z,100.00
2023-02-14T06:36:13.307Z,100.00
2023-02-14T06:38:41.173Z,100.00
2023-02-14T06:41:10.369Z,100.00
2023-02-14T06:43:39.978Z,100.00
2023-02-14T06:46:07.745Z,100.00
2023-02-14T06:48:35.255Z,100.00
2023-02-14T06:51:03.053Z,100.00
2023-02-14T06:53:30.630Z,100.00
2023-02-14T06:55:58.115Z,100.00
2023-02-14T06:58:25.572Z,100.00
2023-02-14T07:00:55.619Z,100.00
2023-02-14T07:03:23.140Z,100.00
2023-02-14T07:05:50.603Z,100.00
2023-02-14T07:08:20.460Z,100.00
2023-02-14T07:10:47.956Z,100.00
2023-02-14T07:13:15.645Z,100.00
2023-02-14T07:15:43.281Z,100.00
2023-02-14T07:18:12.074Z,100.00
2023-02-14T07:20:39.579Z,100.00
2023-02-14T07:23:07.040Z,100.00
2023-02-14T07:25:34.513Z,100.00
2023-02-14T07:28:02.044Z,100.00
2023-02-14T07:30:29.582Z,100.00
2023-02-14T07:32:58.225Z,100.00
2023-02-14T07:35:27.035Z,100.00
2023-02-14T07:37:54.514Z,100.00
2023-02-14T07:40:22.156Z,100.00
2023-02-14T07:42:54.187Z,100.00
2023-02-14T07:45:22.375Z,100.00
2023-02-14T07:47:50.958Z,100.00
2023-02-14T07:50:18.798Z,100.00
2023-02-14T07:52:48.039Z,100.00
2023-02-14T07:55:16.243Z,100.00
2023-02-14T07:57:43.694Z,100.00
2023-02-14T08:00:11.842Z,100.00
2023-02-14T08:02:39.332Z,100.00
2023-02-14T08:05:07.777Z,100.00
2023-02-14T08:07:35.374Z,100.00
2023-02-14T08:10:04.387Z,100.00
2023-02-14T08:12:49.534Z,100.00
2023-02-14T08:15:34.843Z,100.00
2023-02-14T08:18:02.373Z,100.00
2023-02-14T08:20:29.926Z,100.00
2023-02-14T08:22:57.648Z,100.00
2023-02-14T08:25:26.488Z,100.00
2023-02-14T08:27:55.365Z,100.00
2023-02-14T08:30:24.321Z,100.00
2023-02-14T08:32:51.856Z,100.00
2023-02-14T08:35:19.565Z,100.00
2023-02-14T08:37:47.057Z,100.00
2023-02-14T08:40:14.582Z,100.00
2023-02-14T08:42:43.526Z,100.00
2023-02-14T08:45:11.216Z,100.00
2023-02-14T08:47:40.228Z,100.00
2023-02-14T08:50:09.848Z,100.00
2023-02-14T08:52:37.310Z,100.00
2023-02-14T08:55:05.072Z,100.00
2023-02-14T08:57:32.670Z,100.00
2023-02-14T09:00:01.610Z,100.00
2023-02-14T09:02:29.099Z,100.00
2023-02-14T09:04:56.598Z,100.00
2023-02-14T09:07:24.051Z,100.00
2023-02-14T09:09:51.503Z,100.00
2023-02-14T09:12:19.035Z,100.00
2023-02-14T09:14:46.591Z,100.00
2023-02-14T09:17:16.168Z,100.00
2023-02-14T09:19:44.091Z,100.00
2023-02-14T09:22:12.758Z,100.00
2023-02-14T09:24:41.298Z,100.00
2023-02-14T09:27:09.215Z,100.00
2023-02-14T09:29:36.671Z,100.00
2023-02-14T09:32:04.974Z,100.00
2023-02-14T09:34:52.629Z,100.00
2023-02-14T09:37:37.929Z,100.00
2023-02-14T09:40:06.355Z,100.00
2023-02-14T09:42:52.335Z,100.00
2023-02-14T09:45:25.273Z,100.00
2023-02-14T09:47:57.270Z,100.00
2023-02-14T09:50:31.178Z,100.00
2023-02-14T09:53:03.319Z,100.00
2023-02-14T09:55:39.776Z,100.00
2023-02-14T09:58:14.608Z,100.00
2023-02-14T10:00:47.121Z,100.00
2023-02-14T10:03:43.701Z,100.00
2023-02-14T10:06:27.751Z,100.00
2023-02-14T10:09:07.488Z,100.00
2023-02-14T10:11:35.599Z,100.00
2023-02-14T10:14:09.545Z,100.00
2023-02-14T10:16:41.079Z,100.00
2023-02-14T10:19:18.013Z,100.00
2023-02-14T10:21:54.607Z,100.00
2023-02-14T10:24:28.257Z,100.00
2023-02-14T10:26:59.224Z,100.00
2023-02-14T10:29:27.203Z,100.00
2023-02-14T10:32:00.295Z,100.00
2023-02-14T10:34:36.328Z,100.00
2023-02-14T10:37:22.387Z,100.00
2023-02-14T10:40:06.382Z,100.00
2023-02-14T10:42:43.974Z,100.00
2023-02-14T10:45:19.840Z,100.00
2023-02-14T10:47:56.255Z,100.00
2023-02-14T10:50:31.371Z,100.00
2023-02-14T10:53:10.706Z,100.00
2023-02-14T10:55:46.236Z,100.00
2023-02-14T10:58:17.441Z,100.00
2023-02-14T11:00:54.121Z,100.00
2023-02-14T11:03:21.613Z,100.00
2023-02-14T11:05:49.845Z,100.00
2023-02-14T11:08:25.791Z,100.00
2023-02-14T11:10:54.787Z,100.00
2023-02-14T11:13:29.628Z,100.00
2023-02-14T11:16:01.367Z,100.00
2023-02-14T11:18:32.694Z,100.00
2023-02-14T11:21:02.093Z,100.00
2023-02-14T11:23:34.831Z,100.00
2023-02-14T11:26:04.710Z,100.00
2023-02-14T11:28:32.541Z,100.00
2023-02-14T11:31:00.595Z,100.00
2023-02-14T11:33:39.885Z,100.00
2023-02-14T11:36:17.432Z,100.00
2023-02-14T11:38:55.445Z,100.00
2023-02-14T11:41:24.474Z,100.00
2023-02-14T11:43:53.071Z,100.00
2023-02-14T11:46:28.051Z,100.00
2023-02-14T11:48:59.024Z,100.00
2023-02-14T11:51:30.115Z,100.00
2023-02-14T11:54:04.610Z,100.00
2023-02-14T11:56:49.547Z,100.00
2023-02-14T11:59:27.238Z,100.00
2023-02-14T12:01:55.509Z,100.00
2023-02-14T12:04:30.761Z,100.00
2023-02-14T12:07:13.022Z,100.00
2023-02-14T12:09:43.138Z,100.00
2023-02-14T12:12:19.354Z,100.00
2023-02-14T12:14:47.008Z,100.00
2023-02-14T12:17:24.411Z,100.00
2023-02-14T12:19:56.471Z,100.00
2023-02-14T12:22:28.998Z,100.00
2023-02-14T12:25:06.956Z,100.00
2023-02-14T12:27:46.817Z,100.00
2023-02-14T12:30:18.141Z,100.00
2023-02-14T12:32:50.232Z,100.00
2023-02-14T12:35:19.397Z,100.00
2023-02-14T12:38:02.745Z,100.00
2023-02-14T12:40:47.657Z,100.00
2023-02-14T12:43:45.442Z,100.00
2023-02-14T12:46:29.360Z,100.00
2023-02-14T12:49:17.738Z,100.00
2023-02-14T12:51:56.891Z,100.00
2023-02-14T12:54:39.537Z,100.00
2023-02-14T12:57:19.796Z,100.00
2023-02-14T12:59:56.418Z,100.00
2023-02-14T13:02:46.023Z,100.00
2023-02-14T13:05:28.002Z,100.00
2023-02-14T13:08:13.812Z,100.00
2023-02-14T13:10:54.578Z,100.00
2023-02-14T13:13:33.946Z,100.00
2023-02-14T13:16:13.661Z,100.00
2023-02-14T13:18:50.619Z,100.00
2023-02-14T13:21:23.448Z,100.00
2023-02-14T13:23:54.963Z,100.00
2023-02-14T13:26:28.038Z,100.00
2023-02-14T13:29:03.904Z,100.00
2023-02-14T13:31:32.885Z,100.00
2023-02-14T13:34:04.161Z,100.00
2023-02-14T13:36:32.718Z,100.00
2023-02-14T13:39:01.345Z,100.00
2023-02-14T13:41:29.183Z,100.00
2023-02-14T13:44:01.326Z,100.00
2023-02-14T13:46:52.101Z,100.00
2023-02-14T13:49:30.491Z,100.00
2023-02-14T13:52:01.016Z,100.00
2023-02-14T13:54:33.035Z,100.00
2023-02-14T13:57:02.193Z,100.00
2023-02-14T13:59:32.883Z,100.00
2023-02-14T14:02:31.784Z,100.00
2023-02-14T14:04:59.302Z,100.00
2023-02-14T14:07:30.681Z,100.00
2023-02-14T14:10:03.103Z,100.00
2023-02-14T14:12:42.020Z,100.00
2023-02-14T14:15:18.350Z,100.00
2023-02-14T14:17:50.150Z,100.00
2023-02-14T14:20:48.869Z,100.00
2023-02-14T14:23:43.433Z,100.00
2023-02-14T14:26:36.048Z,100.00
2023-02-14T14:29:10.822Z,100.00
2023-02-14T14:31:42.294Z,100.00
2023-02-14T14:34:17.304Z,100.00
2023-02-14T14:36:44.844Z,100.00
2023-02-14T14:39:12.346Z,100.00
2023-02-14T14:41:41.131Z,100.00
2023-02-14T14:44:08.896Z,100.00
2023-02-14T14:46:36.429Z,100.00
2023-02-14T14:49:05.774Z,100.00
2023-02-14T14:51:36.480Z,100.00
2023-02-14T14:54:06.754Z,100.00
2023-02-14T14:56:37.970Z,100.00
2023-02-14T14:59:20.672Z,100.00
2023-02-14T15:01:48.212Z,100.00
2023-02-14T15:04:20.841Z,100.00
2023-02-14T15:06:49.640Z,100.00
2023-02-14T15:09:23.617Z,99.41
2023-02-14T15:12:11.293Z,99.97
2023-02-14T15:14:44.111Z,100.00
2023-02-14T15:17:19.623Z,100.00
2023-02-14T15:19:51.717Z,100.00
2023-02-14T15:22:21.197Z,100.00
2023-02-14T15:24:49.224Z,100.00
2023-02-14T15:27:19.113Z,100.00
2023-02-14T15:29:55.318Z,100.00
2023-02-14T15:32:23.973Z,100.00
2023-02-14T15:34:53.549Z,100.00
2023-02-14T15:37:23.070Z,100.00
2023-02-14T15:39:55.586Z,99.54
2023-02-14T15:42:27.560Z,99.81
2023-02-14T15:45:17.692Z,99.76
2023-02-14T15:47:47.958Z,99.65
2023-02-14T15:50:19.963Z,99.76
2023-02-14T15:52:48.906Z,100.00
2023-02-14T15:55:19.069Z,100.00
2023-02-14T15:57:54.462Z,100.00
2023-02-14T16:00:23.423Z,99.61
2023-02-14T16:02:54.321Z,100.00
2023-02-14T16:05:25.667Z,99.73
2023-02-14T16:07:58.021Z,99.80
2023-02-14T16:10:26.931Z,100.00
2023-02-14T16:13:00.652Z,100.00
2023-02-14T16:15:30.040Z,99.46
2023-02-14T16:17:57.543Z,99.81
2023-02-14T16:20:31.202Z,98.79
2023-02-14T16:23:23.961Z,99.07
2023-02-14T16:25:51.875Z,98.92
2023-02-14T16:28:19.657Z,98.88
2023-02-14T16:30:53.462Z,100.00
2023-02-14T16:33:23.217Z,99.47
2023-02-14T16:35:52.278Z,99.59
2023-02-14T16:38:20.624Z,99.72
2023-02-14T16:40:50.191Z,99.39
2023-02-14T16:43:18.792Z,98.48
2023-02-14T16:45:46.874Z,98.29
2023-02-14T16:48:16.534Z,97.54
2023-02-14T16:50:45.598Z,97.05
2023-02-14T16:53:18.542Z,96.74
2023-02-14T16:55:46.021Z,97.06
2023-02-14T16:58:15.063Z,96.79
2023-02-14T17:00:42.394Z,95.68
2023-02-14T17:03:11.388Z,95.54
2023-02-14T17:05:40.492Z,94.64
2023-02-14T17:08:10.064Z,95.59
2023-02-14T17:10:40.199Z,95.05
2023-02-14T17:13:08.876Z,93.86
2023-02-14T17:15:36.584Z,94.55
2023-02-14T17:18:08.938Z,94.34
2023-02-14T17:20:37.182Z,93.91
2023-02-14T17:23:04.683Z,93.67
2023-02-14T17:25:32.201Z,93.40
2023-02-14T17:28:01.363Z,92.74
2023-02-14T17:30:29.180Z,93.28
2023-02-14T17:32:56.694Z,93.36
2023-02-14T17:35:24.164Z,93.59
2023-02-14T17:37:51.594Z,94.41
2023-02-14T17:40:19.349Z,94.57
2023-02-14T17:42:46.803Z,94.04
2023-02-14T17:45:15.651Z,94.64
2023-02-14T17:47:45.102Z,93.50
2023-02-14T17:50:14.475Z,92.62
2023-02-14T17:52:41.989Z,93.22
2023-02-14T17:55:10.169Z,91.38
2023-02-14T17:57:39.050Z,91.56
2023-02-14T18:00:08.676Z,90.50
2023-02-14T18:02:38.926Z,90.05
2023-02-14T18:05:07.553Z,91.01
2023-02-14T18:07:35.565Z,91.41
2023-02-14T18:10:03.183Z,92.14
2023-02-14T18:12:30.654Z,91.02
2023-02-14T18:14:58.166Z,90.56
2023-02-14T18:17:25.647Z,90.82
2023-02-14T18:19:54.472Z,90.39
2023-02-14T18:22:22.043Z,90.67
2023-02-14T18:24:49.490Z,89.25
2023-02-14T18:27:16.976Z,90.45
2023-02-14T18:29:44.468Z,91.23
2023-02-14T18:32:11.955Z,91.07
2023-02-14T18:34:39.463Z,90.86
2023-02-14T18:37:08.263Z,91.19
2023-02-14T18:39:35.798Z,89.71
2023-02-14T18:42:04.428Z,90.56
2023-02-14T18:44:33.323Z,90.26
2023-02-14T18:47:01.963Z,92.00
2023-02-14T18:49:29.965Z,90.53
2023-02-14T18:51:58.679Z,90.08
2023-02-14T18:54:27.513Z,91.60
2023-02-14T18:56:55.162Z,91.45
2023-02-14T18:59:23.388Z,91.72
2023-02-14T19:01:50.874Z,90.10
2023-02-14T19:04:18.344Z,90.59
2023-02-14T19:06:45.846Z,91.23
2023-02-14T19:09:14.940Z,92.53
2023-02-14T19:11:44.039Z,94.32
2023-02-14T19:14:13.223Z,94.05
2023-02-14T19:16:43.639Z,93.90
2023-02-14T19:19:11.521Z,93.21
2023-02-14T19:21:39.286Z,92.71
2023-02-14T19:24:07.954Z,93.79
2023-02-14T19:26:39.912Z,94.41
2023-02-14T19:29:11.873Z,94.90
2023-02-14T19:31:41.809Z,93.85
2023-02-14T19:34:16.708Z,94.12
2023-02-14T19:36:44.182Z,94.26
2023-02-14T19:39:12.361Z,94.10
2023-02-14T19:41:40.617Z,94.74
2023-02-14T19:44:13.560Z,97.70
2023-02-14T19:46:42.753Z,99.66
2023-02-14T19:49:12.885Z,98.30
2023-02-14T19:51:40.798Z,99.97
2023-02-14T19:54:09.627Z,100.00
2023-02-14T19:56:39.255Z,100.00
2023-02-14T19:59:09.021Z,100.00
2023-02-14T20:01:39.979Z,100.00
2023-02-14T20:04:09.922Z,100.00
2023-02-14T20:06:38.674Z,100.00
2023-02-14T20:09:07.260Z,100.00
2023-02-14T20:11:39.212Z,100.00
2023-02-14T20:14:07.884Z,100.00
2023-02-14T20:16:38.160Z,100.00
2023-02-14T20:19:11.820Z,100.00
2023-02-14T20:21:41.633Z,100.00
2023-02-14T20:24:10.539Z,100.00
2023-02-14T20:26:41.480Z,100.00
2023-02-14T20:29:10.682Z,100.00
2023-02-14T20:31:41.859Z,100.00
2023-02-14T20:34:09.559Z,100.00
2023-02-14T20:36:37.741Z,100.00
2023-02-14T20:39:07.027Z,100.00
2023-02-14T20:41:35.701Z,100.00
2023-02-14T20:44:05.120Z,100.00
2023-02-14T20:46:33.015Z,100.00
2023-02-14T20:49:02.353Z,100.00
2023-02-14T20:51:30.127Z,100.00
2023-02-14T20:53:57.598Z,100.00
2023-02-14T20:56:25.672Z,100.00
2023-02-14T20:58:53.200Z,100.00
2023-02-14T21:01:22.546Z,100.00
2023-02-14T21:03:52.865Z,100.00
2023-02-14T21:06:23.546Z,100.00
2023-02-14T21:08:51.347Z,100.00
2023-02-14T21:11:20.711Z,100.00
2023-02-14T21:13:48.164Z,100.00
2023-02-14T21:16:18.745Z,100.00
2023-02-14T21:18:51.549Z,100.00
2023-02-14T21:21:23.404Z,100.00
2023-02-14T21:23:51.937Z,100.00
2023-02-14T21:26:21.199Z,100.00
2023-02-14T21:28:49.246Z,100.00
2023-02-14T21:31:20.646Z,100.00
2023-02-14T21:33:50.578Z,100.00
2023-02-14T21:36:19.593Z,100.00
2023-02-14T21:38:48.895Z,100.00
2023-02-14T21:41:17.870Z,100.00
2023-02-14T21:43:46.900Z,100.00
2023-02-14T21:46:16.121Z,100.00
2023-02-14T21:49:02.056Z,100.00
2023-02-14T21:51:29.902Z,100.00
2023-02-14T21:54:00.046Z,100.00
2023-02-14T21:56:28.637Z,100.00
2023-02-14T21:58:56.711Z,100.00
2023-02-14T22:01:26.205Z,100.00
2023-02-14T22:03:54.591Z,100.00
2023-02-14T22:06:23.352Z,100.00
2023-02-14T22:08:54.049Z,100.00
2023-02-14T22:11:24.130Z,100.00
2023-02-14T22:13:51.709Z,100.00
2023-02-14T22:16:21.490Z,100.00
2023-02-14T22:18:49.027Z,100.00
2023-02-14T22:21:18.906Z,100.00
2023-02-14T22:23:46.474Z,100.00
2023-02-14T22:26:16.108Z,100.00
2023-02-14T22:28:47.623Z,100.00
2023-02-14T22:31:16.604Z,100.00
2023-02-14T22:33:44.508Z,100.00
2023-02-14T22:36:12.445Z,100.00
2023-02-14T22:38:40.693Z,100.00
2023-02-14T22:41:09.413Z,100.00
2023-02-14T22:43:38.060Z,100.00
2023-02-14T22:46:09.590Z,100.00
2023-02-14T22:48:38.222Z,100.00
2023-02-14T22:51:11.572Z,100.00
2023-02-14T22:53:40.127Z,100.00
2023-02-14T22:56:15.689Z,100.00
2023-02-14T22:58:44.002Z,100.00
2023-02-14T23:01:17.327Z,100.00
2023-02-14T23:03:46.178Z,100.00
2023-02-14T23:06:14.413Z,100.00
2023-02-14T23:08:43.492Z,100.00
2023-02-14T23:11:13.344Z,100.00
2023-02-14T23:13:58.530Z,100.00
2023-02-14T23:16:44.852Z,100.00
2023-02-14T23:19:31.332Z,100.00
2023-02-14T23:21:59.293Z,100.00
2023-02-14T23:24:26.782Z,100.00
2023-02-14T23:26:55.757Z,100.00
2023-02-14T23:29:23.300Z,100.00
2023-02-14T23:31:52.374Z,100.00
2023-02-14T23:34:19.898Z,100.00
2023-02-14T23:36:47.844Z,100.00
2023-02-14T23:39:15.374Z,100.00
2023-02-14T23:41:48.993Z,100.00
2023-02-14T23:44:19.813Z,100.00
2023-02-14T23:46:48.319Z,100.00
2023-02-14T23:49:17.671Z,100.00
2023-02-14T23:51:46.144Z,100.00
2023-02-14T23:54:15.125Z,100.00
2023-02-14T23:56:43.432Z,100.00
2023-02-14T23:59:11.146Z,100.00
